sensor_id;sensor_type;location;lat;lon;timestamp;pressure;altitude;pressure_sealevel;temperature;humidity
61035;BME280;46916;40.564;-7.958;2023-08-08T00:01:48;96962.03;;;29.69;24.51
61035;BME280;46916;40.564;-7.958;2023-08-08T00:03:48;96955.56;;;29.70;24.61
61035;BME280;46916;40.564;-7.958;2023-08-08T00:05:49;96965.03;;;29.73;24.63
61035;BME280;46916;40.564;-7.958;2023-08-08T00:07:50;96958.53;;;29.74;24.71
61035;BME280;46916;40.564;-7.958;2023-08-08T00:09:51;96963.94;;;29.74;24.44
61035;BME280;46916;40.564;-7.958;2023-08-08T00:11:51;96961.53;;;29.72;24.71
61035;BME280;46916;40.564;-7.958;2023-08-08T00:13:52;96958.81;;;29.72;24.72
61035;BME280;46916;40.564;-7.958;2023-08-08T00:15:52;96960.94;;;29.65;24.76
61035;BME280;46916;40.564;-7.958;2023-08-08T00:17:53;96955.53;;;29.60;24.76
61035;BME280;46916;40.564;-7.958;2023-08-08T00:19:53;96957.34;;;29.54;24.47
61035;BME280;46916;40.564;-7.958;2023-08-08T00:21:54;96958.13;;;29.50;24.92
61035;BME280;46916;40.564;-7.958;2023-08-08T00:23:54;96955.94;;;29.42;24.74
61035;BME280;46916;40.564;-7.958;2023-08-08T00:25:55;96960.22;;;29.37;24.91
61035;BME280;46916;40.564;-7.958;2023-08-08T00:27:55;96951.84;;;29.34;25.28
61035;BME280;46916;40.564;-7.958;2023-08-08T00:29:56;96955.06;;;29.31;25.08
61035;BME280;46916;40.564;-7.958;2023-08-08T00:31:57;96953.72;;;29.28;24.99
61035;BME280;46916;40.564;-7.958;2023-08-08T00:33:57;96947.47;;;29.23;25.01
61035;BME280;46916;40.564;-7.958;2023-08-08T00:35:58;96948.00;;;29.20;25.28
61035;BME280;46916;40.564;-7.958;2023-08-08T00:37:58;96943.91;;;29.12;25.39
61035;BME280;46916;40.564;-7.958;2023-08-08T00:39:59;96944.38;;;29.04;25.54
61035;BME280;46916;40.564;-7.958;2023-08-08T00:42:00;96944.09;;;29.00;25.12
61035;BME280;46916;40.564;-7.958;2023-08-08T00:44:00;96943.00;;;29.01;25.08
61035;BME280;46916;40.564;-7.958;2023-08-08T00:46:01;96936.81;;;29.01;25.02
61035;BME280;46916;40.564;-7.958;2023-08-08T00:48:01;96941.66;;;28.99;24.86
61035;BME280;46916;40.564;-7.958;2023-08-08T00:50:02;96933.00;;;28.97;24.68
61035;BME280;46916;40.564;-7.958;2023-08-08T00:52:04;96939.97;;;28.93;24.66
61035;BME280;46916;40.564;-7.958;2023-08-08T00:54:06;96941.28;;;28.90;25.08
61035;BME280;46916;40.564;-7.958;2023-08-08T00:56:08;96941.84;;;28.92;24.88
61035;BME280;46916;40.564;-7.958;2023-08-08T00:58:09;96938.41;;;28.97;24.70
61035;BME280;46916;40.564;-7.958;2023-08-08T01:00:10;96943.00;;;29.01;24.56
61035;BME280;46916;40.564;-7.958;2023-08-08T01:02:11;96951.13;;;29.06;24.84
61035;BME280;46916;40.564;-7.958;2023-08-08T01:04:11;96949.28;;;29.07;24.70
61035;BME280;46916;40.564;-7.958;2023-08-08T01:08:19;96936.84;;;29.06;25.03
61035;BME280;46916;40.564;-7.958;2023-08-08T01:10:29;96940.59;;;29.00;24.96
61035;BME280;46916;40.564;-7.958;2023-08-08T01:12:32;96933.19;;;28.90;25.29
61035;BME280;46916;40.564;-7.958;2023-08-08T01:14:32;96939.38;;;28.85;25.54
61035;BME280;46916;40.564;-7.958;2023-08-08T01:16:34;96933.66;;;28.77;25.46
61035;BME280;46916;40.564;-7.958;2023-08-08T01:18:35;96936.00;;;28.68;26.02
61035;BME280;46916;40.564;-7.958;2023-08-08T01:20:37;96937.06;;;28.62;26.04
61035;BME280;46916;40.564;-7.958;2023-08-08T01:22:58;96935.41;;;28.61;25.99
61035;BME280;46916;40.564;-7.958;2023-08-08T01:25:00;96935.94;;;28.58;26.03
61035;BME280;46916;40.564;-7.958;2023-08-08T01:27:03;96936.69;;;28.53;26.22
61035;BME280;46916;40.564;-7.958;2023-08-08T01:29:04;96930.75;;;28.51;26.13
61035;BME280;46916;40.564;-7.958;2023-08-08T01:31:05;96932.06;;;28.49;25.98
61035;BME280;46916;40.564;-7.958;2023-08-08T01:33:06;96922.88;;;28.45;25.93
61035;BME280;46916;40.564;-7.958;2023-08-08T01:35:09;96925.56;;;28.45;26.17
61035;BME280;46916;40.564;-7.958;2023-08-08T01:39:14;96919.88;;;28.41;25.93
61035;BME280;46916;40.564;-7.958;2023-08-08T01:41:17;96909.06;;;28.36;25.67
61035;BME280;46916;40.564;-7.958;2023-08-08T01:43:18;96913.38;;;28.37;25.62
61035;BME280;46916;40.564;-7.958;2023-08-08T01:45:21;96912.50;;;28.31;25.84
61035;BME280;46916;40.564;-7.958;2023-08-08T01:47:21;96914.34;;;28.26;25.88
61035;BME280;46916;40.564;-7.958;2023-08-08T01:49:22;96918.03;;;28.20;25.83
61035;BME280;46916;40.564;-7.958;2023-08-08T01:51:23;96912.91;;;28.18;25.83
61035;BME280;46916;40.564;-7.958;2023-08-08T01:53:25;96918.03;;;28.20;25.82
61035;BME280;46916;40.564;-7.958;2023-08-08T01:55:27;96912.41;;;28.21;25.59
61035;BME280;46916;40.564;-7.958;2023-08-08T01:57:27;96910.53;;;28.22;25.59
61035;BME280;46916;40.564;-7.958;2023-08-08T01:59:28;96909.66;;;28.16;25.45
61035;BME280;46916;40.564;-7.958;2023-08-08T02:01:28;96911.81;;;28.14;25.28
61035;BME280;46916;40.564;-7.958;2023-08-08T02:03:29;96912.63;;;28.14;24.92
61035;BME280;46916;40.564;-7.958;2023-08-08T02:05:29;96910.72;;;28.15;25.24
61035;BME280;46916;40.564;-7.958;2023-08-08T02:07:31;96911.31;;;28.17;24.84
61035;BME280;46916;40.564;-7.958;2023-08-08T02:09:31;96910.22;;;28.18;25.02
61035;BME280;46916;40.564;-7.958;2023-08-08T02:11:32;96923.19;;;28.21;24.72
61035;BME280;46916;40.564;-7.958;2023-08-08T02:13:32;96922.66;;;28.24;24.28
61035;BME280;46916;40.564;-7.958;2023-08-08T02:15:33;96919.19;;;28.29;24.25
61035;BME280;46916;40.564;-7.958;2023-08-08T02:17:33;96914.69;;;28.34;24.35
61035;BME280;46916;40.564;-7.958;2023-08-08T02:19:34;96909.88;;;28.36;24.42
61035;BME280;46916;40.564;-7.958;2023-08-08T02:21:34;96909.88;;;28.36;23.73
61035;BME280;46916;40.564;-7.958;2023-08-08T02:23:35;96918.53;;;28.38;24.32
61035;BME280;46916;40.564;-7.958;2023-08-08T02:25:36;96913.97;;;28.44;24.09
61035;BME280;46916;40.564;-7.958;2023-08-08T02:27:36;96919.16;;;28.51;24.10
61035;BME280;46916;40.564;-7.958;2023-08-08T02:29:36;96920.81;;;28.57;24.16
61035;BME280;46916;40.564;-7.958;2023-08-08T02:31:37;96927.09;;;28.62;23.90
61035;BME280;46916;40.564;-7.958;2023-08-08T02:33:37;96925.75;;;28.65;23.90
61035;BME280;46916;40.564;-7.958;2023-08-08T02:35:38;96927.38;;;28.66;23.44
61035;BME280;46916;40.564;-7.958;2023-08-08T02:37:38;96922.22;;;28.64;23.20
61035;BME280;46916;40.564;-7.958;2023-08-08T02:39:43;96917.34;;;28.61;23.17
61035;BME280;46916;40.564;-7.958;2023-08-08T02:41:44;96918.94;;;28.57;23.27
61035;BME280;46916;40.564;-7.958;2023-08-08T02:43:46;96918.09;;;28.52;23.40
61035;BME280;46916;40.564;-7.958;2023-08-08T02:45:46;96919.13;;;28.46;23.65
61035;BME280;46916;40.564;-7.958;2023-08-08T02:47:47;96916.94;;;28.43;23.57
61035;BME280;46916;40.564;-7.958;2023-08-08T02:49:47;96909.38;;;28.39;23.91
61035;BME280;46916;40.564;-7.958;2023-08-08T02:51:48;96917.19;;;28.41;23.80
61035;BME280;46916;40.564;-7.958;2023-08-08T02:53:49;96915.06;;;28.43;24.19
61035;BME280;46916;40.564;-7.958;2023-08-08T02:55:50;96917.50;;;28.45;24.03
61035;BME280;46916;40.564;-7.958;2023-08-08T02:57:50;96910.44;;;28.38;23.90
61035;BME280;46916;40.564;-7.958;2023-08-08T02:59:51;96914.13;;;28.32;24.11
61035;BME280;46916;40.564;-7.958;2023-08-08T03:01:51;96915.16;;;28.26;24.19
61035;BME280;46916;40.564;-7.958;2023-08-08T03:03:52;96919.47;;;28.27;24.40
61035;BME280;46916;40.564;-7.958;2023-08-08T03:05:55;96916.22;;;28.25;24.52
61035;BME280;46916;40.564;-7.958;2023-08-08T03:07:55;96928.03;;;28.24;24.02
61035;BME280;46916;40.564;-7.958;2023-08-08T03:09:58;96927.50;;;28.22;24.04
61035;BME280;46916;40.564;-7.958;2023-08-08T03:11:58;96923.69;;;28.18;24.12
61035;BME280;46916;40.564;-7.958;2023-08-08T03:13:59;96930.38;;;28.15;24.27
61035;BME280;46916;40.564;-7.958;2023-08-08T03:16:00;96925.75;;;28.11;24.20
61035;BME280;46916;40.564;-7.958;2023-08-08T03:18:00;96928.66;;;28.04;24.19
61035;BME280;46916;40.564;-7.958;2023-08-08T03:20:01;96931.56;;;27.98;23.96
61035;BME280;46916;40.564;-7.958;2023-08-08T03:22:01;96933.38;;;27.92;24.25
61035;BME280;46916;40.564;-7.958;2023-08-08T03:24:02;96932.00;;;27.89;24.23
61035;BME280;46916;40.564;-7.958;2023-08-08T03:26:03;96940.09;;;27.89;24.45
61035;BME280;46916;40.564;-7.958;2023-08-08T03:28:03;96940.88;;;27.90;24.00
61035;BME280;46916;40.564;-7.958;2023-08-08T03:30:04;96940.56;;;27.86;24.11
61035;BME280;46916;40.564;-7.958;2023-08-08T03:32:11;96936.28;;;27.85;24.41
61035;BME280;46916;40.564;-7.958;2023-08-08T03:34:11;96932.44;;;27.81;24.24
61035;BME280;46916;40.564;-7.958;2023-08-08T03:36:12;96941.88;;;27.84;24.34
61035;BME280;46916;40.564;-7.958;2023-08-08T03:38:13;96934.88;;;27.83;24.19
61035;BME280;46916;40.564;-7.958;2023-08-08T03:40:14;96931.56;;;27.76;24.49
61035;BME280;46916;40.564;-7.958;2023-08-08T03:42:15;96939.09;;;27.74;24.28
61035;BME280;46916;40.564;-7.958;2023-08-08T03:44:16;96939.00;;;27.69;24.28
61035;BME280;46916;40.564;-7.958;2023-08-08T03:46:16;96946.25;;;27.68;24.50
61035;BME280;46916;40.564;-7.958;2023-08-08T03:48:17;96942.44;;;27.64;24.45
61035;BME280;46916;40.564;-7.958;2023-08-08T03:50:17;96940.56;;;27.64;24.83
61035;BME280;46916;40.564;-7.958;2023-08-08T03:52:18;96948.88;;;27.63;24.36
61035;BME280;46916;40.564;-7.958;2023-08-08T03:54:19;96943.81;;;27.66;24.47
61035;BME280;46916;40.564;-7.958;2023-08-08T03:56:19;96943.41;;;27.75;24.44
61035;BME280;46916;40.564;-7.958;2023-08-08T03:58:20;96939.72;;;27.81;24.67
61035;BME280;46916;40.564;-7.958;2023-08-08T04:00:20;96944.88;;;27.87;24.35
61035;BME280;46916;40.564;-7.958;2023-08-08T04:02:21;96944.13;;;27.92;24.03
61035;BME280;46916;40.564;-7.958;2023-08-08T04:04:22;96942.28;;;27.93;24.35
61035;BME280;46916;40.564;-7.958;2023-08-08T04:06:23;96929.69;;;27.98;24.02
61035;BME280;46916;40.564;-7.958;2023-08-08T04:08:23;96936.97;;;28.03;24.26
61035;BME280;46916;40.564;-7.958;2023-08-08T04:10:24;96937.78;;;28.03;24.26
61035;BME280;46916;40.564;-7.958;2023-08-08T04:12:24;96942.09;;;28.04;24.17
61035;BME280;46916;40.564;-7.958;2023-08-08T04:14:25;96947.25;;;28.06;23.92
61035;BME280;46916;40.564;-7.958;2023-08-08T04:16:25;96944.00;;;28.04;23.72
61035;BME280;46916;40.564;-7.958;2023-08-08T04:18:26;96946.38;;;28.00;23.72
61035;BME280;46916;40.564;-7.958;2023-08-08T04:20:26;96943.19;;;28.03;23.97
61035;BME280;46916;40.564;-7.958;2023-08-08T04:22:27;96949.94;;;28.06;23.73
61035;BME280;46916;40.564;-7.958;2023-08-08T04:24:27;96943.50;;;28.07;23.75
61035;BME280;46916;40.564;-7.958;2023-08-08T04:26:27;96944.59;;;28.11;24.03
61035;BME280;46916;40.564;-7.958;2023-08-08T04:28:28;96948.09;;;28.11;23.70
61035;BME280;46916;40.564;-7.958;2023-08-08T04:30:29;96947.56;;;28.09;24.11
61035;BME280;46916;40.564;-7.958;2023-08-08T04:32:29;96939.72;;;28.08;24.12
61035;BME280;46916;40.564;-7.958;2023-08-08T04:34:30;96952.06;;;28.04;24.01
61035;BME280;46916;40.564;-7.958;2023-08-08T04:36:31;96950.41;;;27.98;24.18
61035;BME280;46916;40.564;-7.958;2023-08-08T04:38:31;96955.16;;;27.90;24.10
61035;BME280;46916;40.564;-7.958;2023-08-08T04:40:32;96952.09;;;27.82;24.34
61035;BME280;46916;40.564;-7.958;2023-08-08T04:42:32;96957.66;;;27.75;24.32
61035;BME280;46916;40.564;-7.958;2023-08-08T04:44:33;96951.66;;;27.68;24.60
61035;BME280;46916;40.564;-7.958;2023-08-08T04:46:33;96959.63;;;27.63;24.64
61035;BME280;46916;40.564;-7.958;2023-08-08T04:48:34;96954.94;;;27.53;24.88
61035;BME280;46916;40.564;-7.958;2023-08-08T04:50:34;96957.91;;;27.52;24.48
61035;BME280;46916;40.564;-7.958;2023-08-08T04:52:34;96952.94;;;27.44;24.87
61035;BME280;46916;40.564;-7.958;2023-08-08T04:54:35;96949.13;;;27.39;24.80
61035;BME280;46916;40.564;-7.958;2023-08-08T04:56:35;96955.75;;;27.32;24.96
61035;BME280;46916;40.564;-7.958;2023-08-08T04:58:36;96956.97;;;27.24;25.00
61035;BME280;46916;40.564;-7.958;2023-08-08T05:00:36;96959.81;;;27.17;24.94
61035;BME280;46916;40.564;-7.958;2023-08-08T05:02:37;96962.19;;;27.14;25.10
61035;BME280;46916;40.564;-7.958;2023-08-08T05:04:39;96960.69;;;27.06;25.21
61035;BME280;46916;40.564;-7.958;2023-08-08T05:06:40;96964.47;;;27.05;25.14
61035;BME280;46916;40.564;-7.958;2023-08-08T05:08:40;96963.38;;;27.06;25.31
61035;BME280;46916;40.564;-7.958;2023-08-08T05:10:41;96965.28;;;27.06;25.30
61035;BME280;46916;40.564;-7.958;2023-08-08T05:12:41;96966.66;;;27.08;25.24
61035;BME280;46916;40.564;-7.958;2023-08-08T05:14:42;96962.09;;;27.09;25.60
61035;BME280;46916;40.564;-7.958;2023-08-08T05:16:42;96956.81;;;27.14;25.22
61035;BME280;46916;40.564;-7.958;2023-08-08T05:18:43;96966.28;;;27.16;25.48
61035;BME280;46916;40.564;-7.958;2023-08-08T05:20:46;96961.66;;;27.12;25.35
61035;BME280;46916;40.564;-7.958;2023-08-08T05:22:47;96963.97;;;27.08;25.33
61035;BME280;46916;40.564;-7.958;2023-08-08T05:24:48;96968.91;;;27.11;25.29
61035;BME280;46916;40.564;-7.958;2023-08-08T05:26:48;96969.13;;;27.10;25.35
61035;BME280;46916;40.564;-7.958;2023-08-08T05:28:48;96962.34;;;27.07;25.47
61035;BME280;46916;40.564;-7.958;2023-08-08T05:30:49;96969.28;;;27.03;25.66
61035;BME280;46916;40.564;-7.958;2023-08-08T05:32:50;96973.25;;;27.01;25.38
61035;BME280;46916;40.564;-7.958;2023-08-08T05:34:50;96970.09;;;27.04;25.62
61035;BME280;46916;40.564;-7.958;2023-08-08T05:36:51;96967.63;;;27.02;25.74
61035;BME280;46916;40.564;-7.958;2023-08-08T05:38:51;96973.09;;;27.07;25.63
61035;BME280;46916;40.564;-7.958;2023-08-08T05:40:52;96971.16;;;27.03;25.83
61035;BME280;46916;40.564;-7.958;2023-08-08T05:42:52;96970.56;;;27.01;25.67
61035;BME280;46916;40.564;-7.958;2023-08-08T05:44:53;96967.06;;;27.00;25.92
61035;BME280;46916;40.564;-7.958;2023-08-08T05:46:53;96964.94;;;27.02;26.04
61035;BME280;46916;40.564;-7.958;2023-08-08T05:48:54;96966.75;;;26.97;25.79
61035;BME280;46916;40.564;-7.958;2023-08-08T05:50:54;96964.66;;;26.99;25.83
61035;BME280;46916;40.564;-7.958;2023-08-08T05:52:58;96961.69;;;27.00;25.85
61035;BME280;46916;40.564;-7.958;2023-08-08T05:54:59;96967.56;;;26.97;25.91
61035;BME280;46916;40.564;-7.958;2023-08-08T05:57:00;96963.66;;;26.88;26.42
61035;BME280;46916;40.564;-7.958;2023-08-08T05:59:00;96959.03;;;26.83;26.38
61035;BME280;46916;40.564;-7.958;2023-08-08T06:01:01;96968.72;;;26.84;26.52
61035;BME280;46916;40.564;-7.958;2023-08-08T06:03:01;96965.47;;;26.82;26.25
61035;BME280;46916;40.564;-7.958;2023-08-08T06:05:02;96967.09;;;26.83;26.32
61035;BME280;46916;40.564;-7.958;2023-08-08T06:07:02;96969.53;;;26.85;26.27
61035;BME280;46916;40.564;-7.958;2023-08-08T06:09:03;96968.22;;;26.87;26.20
61035;BME280;46916;40.564;-7.958;2023-08-08T06:11:03;96975.28;;;26.93;26.42
61035;BME280;46916;40.564;-7.958;2023-08-08T06:13:04;96976.69;;;26.96;26.23
61035;BME280;46916;40.564;-7.958;2023-08-08T06:15:05;96973.25;;;27.01;26.18
61035;BME280;46916;40.564;-7.958;2023-08-08T06:17:06;96970.63;;;27.06;26.44
61035;BME280;46916;40.564;-7.958;2023-08-08T06:19:06;96968.38;;;26.98;26.58
61035;BME280;46916;40.564;-7.958;2023-08-08T06:21:06;96965.28;;;26.89;26.72
61035;BME280;46916;40.564;-7.958;2023-08-08T06:23:07;96970.09;;;26.87;26.48
61035;BME280;46916;40.564;-7.958;2023-08-08T06:25:08;96978.56;;;26.79;26.54
61035;BME280;46916;40.564;-7.958;2023-08-08T06:27:08;96974.22;;;26.78;26.89
61035;BME280;46916;40.564;-7.958;2023-08-08T06:29:09;96969.94;;;26.77;26.81
61035;BME280;46916;40.564;-7.958;2023-08-08T06:31:09;96977.75;;;26.78;26.83
61035;BME280;46916;40.564;-7.958;2023-08-08T06:33:10;96981.25;;;26.79;27.15
61035;BME280;46916;40.564;-7.958;2023-08-08T06:35:11;96979.13;;;26.81;27.18
61035;BME280;46916;40.564;-7.958;2023-08-08T06:37:11;96981.81;;;26.81;27.02
61035;BME280;46916;40.564;-7.958;2023-08-08T06:39:12;96980.44;;;26.78;27.35
61035;BME280;46916;40.564;-7.958;2023-08-08T06:41:12;96982.53;;;26.76;27.15
61035;BME280;46916;40.564;-7.958;2023-08-08T06:43:13;96984.16;;;26.77;27.17
61035;BME280;46916;40.564;-7.958;2023-08-08T06:45:13;96985.50;;;26.75;27.10
61035;BME280;46916;40.564;-7.958;2023-08-08T06:47:14;96988.19;;;26.75;27.48
61035;BME280;46916;40.564;-7.958;2023-08-08T06:49:14;96987.66;;;26.78;27.27
61035;BME280;46916;40.564;-7.958;2023-08-08T06:51:15;96994.44;;;26.80;27.65
61035;BME280;46916;40.564;-7.958;2023-08-08T06:53:15;96986.22;;;26.87;27.48
61035;BME280;46916;40.564;-7.958;2023-08-08T06:55:16;96987.91;;;26.93;27.16
61035;BME280;46916;40.564;-7.958;2023-08-08T06:57:17;96996.78;;;26.93;27.05
61035;BME280;46916;40.564;-7.958;2023-08-08T06:59:17;97005.50;;;27.01;27.17
61035;BME280;46916;40.564;-7.958;2023-08-08T07:01:18;96992.16;;;27.06;26.80
61035;BME280;46916;40.564;-7.958;2023-08-08T07:03:19;96998.28;;;27.18;26.85
61035;BME280;46916;40.564;-7.958;2023-08-08T07:05:19;96996.22;;;27.25;26.46
61035;BME280;46916;40.564;-7.958;2023-08-08T07:07:20;96994.94;;;27.28;26.62
61035;BME280;46916;40.564;-7.958;2023-08-08T07:09:20;96995.88;;;27.38;26.32
61035;BME280;46916;40.564;-7.958;2023-08-08T07:11:21;96999.16;;;27.40;26.47
61035;BME280;46916;40.564;-7.958;2023-08-08T07:13:22;96998.66;;;27.44;26.37
61035;BME280;46916;40.564;-7.958;2023-08-08T07:15:22;96996.34;;;27.52;26.70
61035;BME280;46916;40.564;-7.958;2023-08-08T07:17:24;96998.34;;;27.62;26.57
61035;BME280;46916;40.564;-7.958;2023-08-08T07:19:24;96990.34;;;27.67;26.44
61035;BME280;46916;40.564;-7.958;2023-08-08T07:21:25;97002.50;;;27.70;26.47
61035;BME280;46916;40.564;-7.958;2023-08-08T07:23:26;96995.91;;;27.77;26.18
61035;BME280;46916;40.564;-7.958;2023-08-08T07:25:27;97000.59;;;27.87;26.17
61035;BME280;46916;40.564;-7.958;2023-08-08T07:27:27;96990.72;;;27.93;26.06
61035;BME280;46916;40.564;-7.958;2023-08-08T07:29:28;96988.06;;;27.98;25.76
61035;BME280;46916;40.564;-7.958;2023-08-08T07:31:28;96987.06;;;28.04;25.82
61035;BME280;46916;40.564;-7.958;2023-08-08T07:33:29;96993.63;;;28.13;26.08
61035;BME280;46916;40.564;-7.958;2023-08-08T07:35:29;96991.84;;;28.24;25.63
61035;BME280;46916;40.564;-7.958;2023-08-08T07:37:29;96995.63;;;28.23;26.21
61035;BME280;46916;40.564;-7.958;2023-08-08T07:39:30;97013.69;;;28.27;25.58
61035;BME280;46916;40.564;-7.958;2023-08-08T07:41:30;97007.25;;;28.28;25.44
61035;BME280;46916;40.564;-7.958;2023-08-08T07:43:31;97002.44;;;28.30;25.44
61035;BME280;46916;40.564;-7.958;2023-08-08T07:45:32;97009.69;;;28.30;25.31
61035;BME280;46916;40.564;-7.958;2023-08-08T07:47:32;97016.13;;;28.29;25.72
61035;BME280;46916;40.564;-7.958;2023-08-08T07:49:33;97020.22;;;28.31;25.84
61035;BME280;46916;40.564;-7.958;2023-08-08T07:51:33;97010.63;;;28.41;25.24
61035;BME280;46916;40.564;-7.958;2023-08-08T07:53:34;97018.22;;;28.44;25.59
61035;BME280;46916;40.564;-7.958;2023-08-08T07:55:34;97013.13;;;28.47;25.75
61035;BME280;46916;40.564;-7.958;2023-08-08T07:57:35;97022.94;;;28.58;25.55
61035;BME280;46916;40.564;-7.958;2023-08-08T07:59:35;97018.41;;;28.64;25.37
61035;BME280;46916;40.564;-7.958;2023-08-08T08:01:36;97027.16;;;28.76;25.54
61035;BME280;46916;40.564;-7.958;2023-08-08T08:03:37;97024.50;;;28.81;25.93
61035;BME280;46916;40.564;-7.958;2023-08-08T08:05:37;97022.66;;;28.87;26.20
61035;BME280;46916;40.564;-7.958;2023-08-08T08:07:38;97026.50;;;28.96;26.02
61035;BME280;46916;40.564;-7.958;2023-08-08T08:09:38;97034.66;;;29.01;25.60
61035;BME280;46916;40.564;-7.958;2023-08-08T08:11:42;97030.34;;;29.00;25.71
61035;BME280;46916;40.564;-7.958;2023-08-08T08:13:43;97036.56;;;29.01;25.49
61035;BME280;46916;40.564;-7.958;2023-08-08T08:15:44;97035.69;;;28.95;25.90
61035;BME280;46916;40.564;-7.958;2023-08-08T08:17:44;97037.56;;;28.95;25.75
61035;BME280;46916;40.564;-7.958;2023-08-08T08:19:45;97041.31;;;28.94;25.97
61035;BME280;46916;40.564;-7.958;2023-08-08T08:21:45;97035.09;;;28.93;26.22
61035;BME280;46916;40.564;-7.958;2023-08-08T08:23:46;97038.63;;;28.94;25.90
61035;BME280;46916;40.564;-7.958;2023-08-08T08:25:47;97035.44;;;28.97;26.29
61035;BME280;46916;40.564;-7.958;2023-08-08T08:27:49;97034.38;;;28.98;26.00
61035;BME280;46916;40.564;-7.958;2023-08-08T08:29:49;97040.06;;;29.01;26.13
61035;BME280;46916;40.564;-7.958;2023-08-08T08:31:50;97034.47;;;29.08;26.47
61035;BME280;46916;40.564;-7.958;2023-08-08T08:33:50;97039.34;;;29.11;26.32
61035;BME280;46916;40.564;-7.958;2023-08-08T08:35:51;97036.13;;;29.14;26.27
61035;BME280;46916;40.564;-7.958;2023-08-08T08:37:51;97031.31;;;29.21;26.17
61035;BME280;46916;40.564;-7.958;2023-08-08T08:39:52;97033.22;;;29.26;25.95
61035;BME280;46916;40.564;-7.958;2023-08-08T08:41:54;97038.38;;;29.27;25.65
61035;BME280;46916;40.564;-7.958;2023-08-08T08:43:56;97036.25;;;29.34;25.90
61035;BME280;46916;40.564;-7.958;2023-08-08T08:45:56;97038.44;;;29.37;25.92
61035;BME280;46916;40.564;-7.958;2023-08-08T08:47:59;97037.13;;;29.40;25.77
61035;BME280;46916;40.564;-7.958;2023-08-08T08:50:00;97039.84;;;29.45;26.30
61035;BME280;46916;40.564;-7.958;2023-08-08T08:52:03;97042.31;;;29.52;26.28
61035;BME280;46916;40.564;-7.958;2023-08-08T08:54:05;97039.16;;;29.60;25.73
61035;BME280;46916;40.564;-7.958;2023-08-08T08:56:06;97033.00;;;29.65;26.11
61035;BME280;46916;40.564;-7.958;2023-08-08T08:58:07;97040.00;;;29.66;25.77
61035;BME280;46916;40.564;-7.958;2023-08-08T09:00:08;97043.22;;;29.68;25.71
61035;BME280;46916;40.564;-7.958;2023-08-08T09:02:09;97038.94;;;29.72;25.92
61035;BME280;46916;40.564;-7.958;2023-08-08T09:04:11;97036.53;;;29.75;25.85
61035;BME280;46916;40.564;-7.958;2023-08-08T09:06:12;97041.16;;;29.80;26.00
61035;BME280;46916;40.564;-7.958;2023-08-08T09:08:13;97028.50;;;29.80;26.17
61035;BME280;46916;40.564;-7.958;2023-08-08T09:10:15;97035.50;;;29.81;26.14
61035;BME280;46916;40.564;-7.958;2023-08-08T09:12:16;97037.13;;;29.88;26.25
61035;BME280;46916;40.564;-7.958;2023-08-08T09:14:17;97032.84;;;29.92;25.84
61035;BME280;46916;40.564;-7.958;2023-08-08T09:16:17;97033.13;;;29.95;26.19
61035;BME280;46916;40.564;-7.958;2023-08-08T09:18:18;97042.06;;;30.01;25.95
61035;BME280;46916;40.564;-7.958;2023-08-08T09:20:21;97043.16;;;30.05;26.37
61035;BME280;46916;40.564;-7.958;2023-08-08T09:22:21;97033.19;;;30.10;26.35
61035;BME280;46916;40.564;-7.958;2023-08-08T09:24:23;97034.84;;;30.17;26.49
61035;BME280;46916;40.564;-7.958;2023-08-08T09:26:24;97039.78;;;30.30;26.32
61035;BME280;46916;40.564;-7.958;2023-08-08T09:28:25;97043.31;;;30.41;25.99
61035;BME280;46916;40.564;-7.958;2023-08-08T09:30:25;97032.50;;;30.41;25.97
61035;BME280;46916;40.564;-7.958;2023-08-08T09:32:32;97031.97;;;30.44;26.18
61035;BME280;46916;40.564;-7.958;2023-08-08T09:34:33;97030.34;;;30.48;25.99
61035;BME280;46916;40.564;-7.958;2023-08-08T09:36:34;97035.75;;;30.53;26.04
61035;BME280;46916;40.564;-7.958;2023-08-08T09:38:35;97034.16;;;30.57;26.06
61035;BME280;46916;40.564;-7.958;2023-08-08T09:40:36;97028.22;;;30.60;26.13
61035;BME280;46916;40.564;-7.958;2023-08-08T09:42:36;97032.56;;;30.66;26.02
61035;BME280;46916;40.564;-7.958;2023-08-08T09:44:37;97033.09;;;30.68;26.05
61035;BME280;46916;40.564;-7.958;2023-08-08T09:46:38;97033.38;;;30.72;26.05
61035;BME280;46916;40.564;-7.958;2023-08-08T09:48:39;97032.06;;;30.74;25.98
61035;BME280;46916;40.564;-7.958;2023-08-08T09:50:41;97025.56;;;30.75;25.98
61035;BME280;46916;40.564;-7.958;2023-08-08T09:52:41;97030.44;;;30.78;25.87
61035;BME280;46916;40.564;-7.958;2023-08-08T09:54:42;97032.88;;;30.80;25.71
61035;BME280;46916;40.564;-7.958;2023-08-08T09:56:43;97037.19;;;30.86;25.34
61035;BME280;46916;40.564;-7.958;2023-08-08T09:58:43;97029.34;;;30.90;25.49
61035;BME280;46916;40.564;-7.958;2023-08-08T10:00:45;97036.41;;;30.96;24.68
61035;BME280;46916;40.564;-7.958;2023-08-08T10:02:46;97036.94;;;31.03;24.77
61035;BME280;46916;40.564;-7.958;2023-08-08T10:04:47;97030.16;;;31.05;24.62
61035;BME280;46916;40.564;-7.958;2023-08-08T10:06:48;97041.00;;;31.05;24.80
61035;BME280;46916;40.564;-7.958;2023-08-08T10:08:48;97038.56;;;31.09;24.71
61035;BME280;46916;40.564;-7.958;2023-08-08T10:10:50;97029.38;;;31.20;24.29
61035;BME280;46916;40.564;-7.958;2023-08-08T10:12:50;97029.63;;;31.24;24.17
61035;BME280;46916;40.564;-7.958;2023-08-08T10:14:52;97033.41;;;31.28;24.13
61035;BME280;46916;40.564;-7.958;2023-08-08T10:16:52;97027.47;;;31.31;24.12
61035;BME280;46916;40.564;-7.958;2023-08-08T10:18:54;97026.66;;;31.30;24.18
61035;BME280;46916;40.564;-7.958;2023-08-08T10:20:56;97029.13;;;31.32;24.53
61035;BME280;46916;40.564;-7.958;2023-08-08T10:22:57;97025.84;;;31.35;25.06
61035;BME280;46916;40.564;-7.958;2023-08-08T10:24:58;97033.16;;;31.45;24.58
61035;BME280;46916;40.564;-7.958;2023-08-08T10:27:03;97022.88;;;31.52;24.63
61035;BME280;46916;40.564;-7.958;2023-08-08T10:29:04;97026.88;;;31.60;24.25
61035;BME280;46916;40.564;-7.958;2023-08-08T10:31:15;97024.44;;;31.68;23.96
61035;BME280;46916;40.564;-7.958;2023-08-08T10:33:20;97032.25;;;31.75;23.53
61035;BME280;46916;40.564;-7.958;2023-08-08T10:35:21;97029.28;;;31.81;23.38
61035;BME280;46916;40.564;-7.958;2023-08-08T10:37:24;97030.09;;;31.87;23.47